ěÝzenÝ letovÚho provozu ╚eskÚ republiky
Letiste: LKPR Aktualizace: 17.04.2021 19:30:25  UTC
 METAR LKPR 17.04. 19:30 ...
METAR LKPR 171930Z 23004KT 9999 SCT017 OVC030 03/02 Q1020 NOSIG RMK REG QNH 1017=
 TAF LKPR 17.04. 17:00 ...
TAF LKPR 171700Z 1718/1900 31006KT 9999 BKN017      TEMPO 1718/1818 5000 -RA BR BKN010      PROB40 TEMPO 1722/1809 2000 -DZ BR BKN004      PROB30 TEMPO 1811/1816 06006KT 6000 -SHRA SCT017TCU=